42J

Keystone Airpark

Keystone Heights, Florida, USA
METAR K42J 151235Z AUTO 19006KT 5SM BR CLR 25/24 A3010 RMK A01 TSNO
Observed Flight Rules
Aug-15 @ 12:35 UTC (6 minutes ago) Marginal Visual Flight Rules
Wind Visibility Clouds Conditions
190° at 6 knots 5 miles
  • Clear skies
  • Mist
Temperatures Readings
Current 25°C / 77°F
Dewpoint 24°C / 75°F
Humidity 94%
Altimeter 30.1" Hg
Pressure 1019 hPa
Elevation 60
METAR K42J 151235Z AUTO 19006KT 5SM BR CLR 25/24 A3010 RMK A01 TSNO
Observed Flight Rules
Aug-15 @ 12:35 UTC
(6 minutes ago)
MVFR
Wind Visibility
190° at 6 knots 5 miles
Clouds
  • Clear skies
Conditions
  • Mist
Temperature Dewpoint
25°C / 77°F 24°C / 75°F
Humidity Altimeter Pressure
94% 30.1" Hg 1019 hPa